Flight Track Log - Related Links

Times and Time Zones

All times are in EDT time to prevent confusion due to time zone crossing. See the GLA53N flight status page for this flight to view local times or setup timezone preferences in your user account.

Time Position Orientation Groundspeed Altitude Reporting Facility
EDT Latitude Longitude Course Direction KTS MPH feet Rate Location/Type
Tue 02:03:23 PM 41.1344 -100.6978 270° West 139 160 3,400  Level Denver Center
Tue 02:04:25 PM 41.1267 -100.7539 260° West 162 186 5,100 1,694 Climbing Denver Center
Tue 02:05:00 PM 41.1167 -101.2254 270° West  Level FlightAware Approximate
Tue 02:05:27 PM 41.1078 -100.8233 250° West 173 199 6,900  Level Denver Center
Tue 02:06:00 PM 41.1167 -101.3158 270° West  Level FlightAware Approximate
Tue 02:06:29 PM 41.0914 -100.8889 252° West 185 213 8,400  Level Denver Center
Tue 02:07:00 PM 41.1167 -101.4061 270° West  Level FlightAware Approximate
Tue 02:07:43 PM 41.0736 -100.9692 254° West 201 231 10,300  Level Denver Center
Tue 02:08:00 PM 41.1167 -101.4964 270° West  Level FlightAware Approximate
Tue 02:08:45 PM 41.0536 -101.0594 254° West 201 231 12,000  Level Denver Center
Tue 02:09:47 PM 41.0500 -101.1314 266° West 205 236 13,300 1,344 Climbing Denver Center
Tue 02:10:50 PM 41.0492 -101.2164 269° West 207 238 14,800 1,248 Climbing Denver Center
Tue 02:11:52 PM 41.0517 -101.2911 273° West 210 242 15,900 1,065 Climbing Denver Center
Tue 02:12:54 PM 41.0569 -101.3661 275° West 214 246 17,000 1,161 Climbing Denver Center
Tue 02:13:56 PM 41.0636 -101.4556 276° West 217 250 18,300 1,065 Climbing Denver Center
Tue 02:14:58 PM 41.0500 -101.5333 257° West 225 259 19,200 1,016 Climbing Denver Center
Tue 02:16:00 PM 41.0292 -101.6225 253° West 226 260 20,400 1,065 Climbing Denver Center
Tue 02:17:02 PM 41.0117 -101.6975 253° West 224 258 21,400 968 Climbing Denver Center
Tue 02:18:04 PM 40.9917 -101.7864 253° West 227 261 22,400 871 Climbing Denver Center
Tue 02:19:06 PM 40.9722 -101.8625 251° West 229 264 23,200 732 Climbing Denver Center
Tue 02:20:07 PM 40.9472 -101.9519 250° West 233 268 23,900 390 Climbing Denver Center
Tue 02:21:09 PM 40.9275 -102.0303 252° West 235 270 24,000 97 Climbing Denver Center
Tue 02:22:11 PM 40.9050 -102.1314 254° West 256 295 24,100  Climbing Denver Center
Tue 02:23:13 PM 40.8856 -102.2208 254° West 263 303 24,000 -48 Descending Denver Center
Tue 02:24:15 PM 40.8603 -102.3253 252° West 267 307 24,000  Level Denver Center
Tue 02:25:17 PM 40.8403 -102.4144 254° West 266 306 24,000  Level Denver Center
Tue 02:26:19 PM 40.8172 -102.5197 254° West 266 306 24,000  Level Denver Center
Tue 02:27:21 PM 40.7972 -102.6103 254° West 269 310 24,000  Level Denver Center
Tue 02:28:23 PM 40.7742 -102.7019 252° West 272 313 24,000  Level Denver Center
Tue 02:29:25 PM 40.7500 -102.8061 253° West 268 308 24,000  Level Denver Center
Tue 02:30:27 PM 40.7292 -102.8964 253° West 269 310 24,000  Level Denver Center
Tue 02:31:29 PM 40.7033 -103.0008 252° West 268 308 24,000  Level Denver Center
Tue 02:32:31 PM 40.6844 -103.0906 255° West 268 308 24,000  Level Denver Center
Tue 02:33:33 PM 40.6625 -103.1967 255° West 269 310 24,000  Level Denver Center
Tue 02:34:35 PM 40.6447 -103.2878 256° West 269 310 24,000 -435 Level Denver Center
Tue 02:35:37 PM 40.6203 -103.3872 252° West 270 311 23,100 -1,258 Descending Denver Center
Tue 02:36:39 PM 40.5975 -103.4919 254° West 268 308 21,400 -2,074 Descending Denver Center
Tue 02:37:53 PM 40.5764 -103.5797 252° West 264 304 18,400 -2,294 Descending Denver Center
Tue 02:38:55 PM 40.5442 -103.6956 250° West 263 303 16,200 -1,984 Descending Denver Center
Tue 02:39:57 PM 40.5047 -103.7742 237° Southwest 269 310 14,300 -1,500 Descending Denver Center
Tue 02:40:59 PM 40.4592 -103.8633 236° Southwest 268 308 13,100 -581 Descending Denver Center
Tue 02:42:01 PM 40.4117 -103.9417 231° Southwest 267 307 13,100  Level Denver Center
Tue 02:43:03 PM 40.3608 -104.0119 227° Southwest 267 307 13,100 -49 Level Denver Center
Tue 02:44:04 PM 40.3058 -104.0794 223° Southwest 271 312 13,000 -49 Descending Denver Center
Tue 02:45:06 PM 40.2464 -104.1506 222° Southwest 269 310 13,000 48 Level Denver Center
Tue 02:46:08 PM 40.1911 -104.2139 221° Southwest 265 305 13,100  Climbing Denver Center
Tue 02:47:10 PM 40.1322 -104.2822 222° Southwest 264 304 13,000  Descending Denver Center
Tue 02:48:12 PM 40.0753 -104.3450 220° Southwest 267 307 13,100 50 Climbing Denver Center
Tue 02:49:11 PM 40.0167 -104.4167 223° Southwest 270 311 13,100 -202 Level Denver TRACON
Tue 02:50:11 PM 39.9667 -104.4667 217° Southwest 272 313 12,700 -857 Descending Denver TRACON
Tue 02:51:17 PM 39.8833 -104.4833 189° South 267 307 11,300 -1,547 Descending Denver TRACON
Tue 02:52:19 PM 39.8147 -104.5219 203° Southwest 270 311 9,400 -1,887 Descending Denver Center
Tue 02:53:21 PM 39.7769 -104.5939 236° Southwest 249 287 7,400 -1,645 Descending Denver Center
Tue 02:54:23 PM 39.8108 -104.6408 313° West 178 205 6,000 -844 Descending Denver Center
Tue 02:55:36 PM 39.8536 -104.6400 North 155 178 5,500 -411 Descending Denver Center
Tue 02:57:00 PM 39.8500 -104.6667 229° Southwest  Level FlightAware Approximate
Tue 03:04:00 PM 39.8617 -104.6732 229° Southwest  Level Estimated
Tue 03:05:00 PM 39.8617 -104.6732 229° Southwest  Level Estimated

Login

Don't have an account? Register now (free) for customized features, flight alerts, and more!